SACO/COR METAR and TAF weather

Enter ICAO airport designator
Station Type Date Time Source
SACO METAR 2022/06/27 09:00 UTC NOAA

SACO 270900Z 15003KT 120V180 9999 OVC010 07/06 Q1016 TEMPO 3000 BR OVC007 RMK PP000


Station Type Date Time Source
SACO Decoded METAR 2022/06/27 09:00 UTC NOAA

Cordoba Aerodrome, Argentina (SACO) 31-19S 064-13W 474M
Jun 27, 2022 - 05:00 AM EDT / 2022.06.27 0900 UTC
Wind: from the SSE (150 degrees) at 3 MPH (3 KT) (direction variable):0
Visibility: greater than 7 mile(s):0
Sky conditions: overcast
Temperature: 44 F (7 C)
Dew Point: 42 F (6 C)
Relative Humidity: 93%
Pressure (altimeter): 30.00 in. Hg (1016 hPa)
ob: SACO 270900Z 15003KT 120V180 9999 OVC010 07/06 Q1016 TEMPO 3000 BR OVC007 RMK PP000
cycle: 9

Station Type Date Time Source
SACO TAF 2022/06/27 06:19 UTC NOAA

TAF SACO 270500Z 2706/2806 07005KT 7000 OVC010 TX13/2718Z TN05/2710Z
BECMG 2707/2710 3000 DZ BR OVC007
TEMPO 2714/2719 18005KT 9999 NSW BKN020

Example: see airport list